Time;durP1;ratioP1;P1;durP2;ratioP2;P2;SDS_P1;SDS_P2;PMS_P1;PMS_P2;Temp;Humidity;BMP_temperature;BMP_pressure;BME280_temperature;BME280_humidity;BME280_pressure;Samples;Min_cycle;Max_cycle;Signal;HPM_P1;HPM_P2
2022/02/23 00:00:46;;;;;;;27.00;11.80;;;10.70;99.90;;;;;;5034432;28;20406;-92
2022/02/23 00:03:12;;;;;;;30.13;11.50;;;10.80;99.90;;;;;;5034398;28;20029;-91
2022/02/23 00:05:37;;;;;;;26.83;9.82;;;11.00;99.90;;;;;;5034800;28;20545;-91
2022/02/23 00:08:04;;;;;;;26.08;9.38;;;10.90;99.90;;;;;;5020301;28;20125;-91
2022/02/23 00:10:30;;;;;;;27.52;10.05;;;10.90;99.90;;;;;;5034142;28;20049;-91
2022/02/23 00:12:55;;;;;;;28.33;9.50;;;10.90;99.90;;;;;;5019641;28;20068;-91
2022/02/23 00:15:21;;;;;;;21.48;8.95;;;10.90;99.90;;;;;;5016520;28;20482;-90
2022/02/23 00:17:47;;;;;;;27.27;9.15;;;10.60;99.90;;;;;;5034539;28;20079;-91
2022/02/23 00:20:13;;;;;;;31.33;10.10;;;10.70;99.90;;;;;;5033970;28;20069;-91
2022/02/23 00:22:39;;;;;;;24.50;8.52;;;10.70;99.90;;;;;;5033901;28;20028;-91
2022/02/23 00:25:06;;;;;;;23.67;9.38;;;10.70;99.90;;;;;;5017904;28;20063;-89
2022/02/23 00:27:31;;;;;;;24.60;9.18;;;10.90;99.90;;;;;;5000405;28;20033;-91
2022/02/23 00:29:57;;;;;;;27.15;8.88;;;10.80;99.90;;;;;;5034716;28;20079;-91
2022/02/23 00:32:23;;;;;;;21.50;8.20;;;10.70;99.90;;;;;;5033801;28;20067;-91
2022/02/23 00:34:49;;;;;;;14.35;6.78;;;10.70;99.90;;;;;;5018394;28;20063;-91
2022/02/23 00:37:16;;;;;;;21.63;7.95;;;10.50;99.90;;;;;;5017138;28;20410;-91
2022/02/23 00:39:42;;;;;;;22.08;7.30;;;10.50;99.90;;;;;;5017423;28;20065;-91
2022/02/23 00:42:08;;;;;;;23.88;6.60;;;10.70;1.00;;;;;;5015825;28;20028;-91
2022/02/23 00:44:34;;;;;;;21.55;6.40;;;10.40;99.90;;;;;;5034239;28;20021;-90
2022/02/23 00:47:00;;;;;;;20.58;6.78;;;10.70;99.90;;;;;;5033409;28;20037;-91
2022/02/23 00:49:26;;;;;;;18.73;5.72;;;10.70;99.90;;;;;;5016933;28;20084;-91
2022/02/23 00:51:52;;;;;;;17.45;5.43;;;10.80;99.90;;;;;;5033516;28;20049;-91
2022/02/23 00:54:18;;;;;;;18.27;5.57;;;10.60;99.90;;;;;;5033558;28;20413;-91
2022/02/23 00:56:48;;;;;;;18.27;5.95;;;10.40;99.90;;;;;;5033286;28;20030;-90
2022/02/23 00:59:14;;;;;;;19.80;6.28;;;10.50;99.90;;;;;;5033295;28;20029;-91
2022/02/23 01:01:40;;;;;;;21.65;6.25;;;10.70;99.90;;;;;;5016798;28;20563;-90
2022/02/23 01:04:07;;;;;;;21.27;6.07;;;10.70;99.90;;;;;;5032807;28;20025;-90
2022/02/23 01:06:33;;;;;;;18.88;6.30;;;10.50;99.90;;;;;;5033789;28;20079;-91
2022/02/23 01:08:59;;;;;;;24.13;6.78;;;10.40;99.90;;;;;;5032858;28;20648;-90
2022/02/23 01:11:25;;;;;;;17.77;6.57;;;10.40;99.90;;;;;;5033561;28;20435;-91
2022/02/23 01:13:51;;;;;;;16.60;6.13;;;10.80;99.90;;;;;;5032805;28;20036;-91
2022/02/23 01:16:17;;;;;;;25.90;7.47;;;10.60;99.90;;;;;;5016065;28;20040;-91
2022/02/23 01:18:44;;;;;;;18.17;7.15;;;10.30;99.90;;;;;;5032851;28;20032;-91
2022/02/23 01:21:10;;;;;;;21.45;7.00;;;10.50;99.90;;;;;;5015552;28;20554;-91
2022/02/23 01:23:35;;;;;;;20.55;6.15;;;10.70;99.90;;;;;;5031852;28;20021;-91
2022/02/23 01:26:02;;;;;;;21.05;7.90;;;10.60;99.90;;;;;;5032689;28;20379;-91
2022/02/23 01:28:28;;;;;;;19.30;7.53;;;10.80;99.90;;;;;;5033122;28;20057;-91
2022/02/23 01:30:53;;;;;;;21.42;7.68;;;10.80;99.90;;;;;;5017904;28;20191;-91
2022/02/23 01:33:19;;;;;;;25.75;8.98;;;10.60;99.90;;;;;;5032667;28;20033;-91
2022/02/23 01:35:44;;;;;;;23.35;9.02;;;10.60;99.90;;;;;;5015538;28;20033;-91
2022/02/23 01:38:10;;;;;;;24.15;8.63;;;10.90;99.90;;;;;;5031643;28;20498;-91
2022/02/23 01:40:36;;;;;;;27.38;9.38;;;10.90;99.90;;;;;;5016393;28;20636;-91
2022/02/23 01:43:02;;;;;;;24.85;8.85;;;10.70;99.90;;;;;;5015961;28;20036;-91
2022/02/23 01:45:28;;;;;;;22.92;8.48;;;10.50;99.90;;;;;;5015241;28;20021;-91
2022/02/23 01:47:54;;;;;;;26.38;8.70;;;10.40;99.90;;;;;;5015351;28;20124;-91
2022/02/23 01:50:20;;;;;;;26.30;9.57;;;10.60;99.90;;;;;;5016163;28;20025;-91
2022/02/23 01:52:45;;;;;;;24.85;8.98;;;10.80;99.90;;;;;;5031928;28;20026;-91
2022/02/23 01:55:11;;;;;;;25.50;9.15;;;10.70;99.90;;;;;;5032091;28;20044;-91
2022/02/23 01:57:37;;;;;;;24.17;8.93;;;10.70;99.90;;;;;;5032288;28;20040;-91
2022/02/23 02:00:06;;;;;;;24.48;9.10;;;10.80;99.90;;;;;;5032434;28;20083;-91
2022/02/23 02:02:31;;;;;;;24.65;8.73;;;10.90;99.90;;;;;;5015127;28;20116;-91
2022/02/23 02:04:57;;;;;;;22.17;7.90;;;10.80;99.90;;;;;;5031957;28;20112;-91
2022/02/23 02:07:23;;;;;;;19.63;7.63;;;10.70;99.90;;;;;;5015417;28;20025;-91
2022/02/23 02:09:48;;;;;;;21.95;8.13;;;10.60;99.90;;;;;;5031771;28;20108;-91
2022/02/23 02:12:14;;;;;;;21.27;7.68;;;10.50;99.90;;;;;;5032800;28;20109;-91
2022/02/23 02:14:40;;;;;;;22.00;8.07;;;10.40;99.90;;;;;;5032535;28;20413;-91
2022/02/23 02:17:06;;;;;;;24.48;7.82;;;10.40;99.90;;;;;;5031771;28;20070;-91
2022/02/23 02:19:31;;;;;;;22.48;7.47;;;10.20;99.90;;;;;;5017005;28;20033;-91
2022/02/23 02:22:07;;;;;;;24.13;7.18;;;10.20;1.00;;;;;;5032225;28;20064;-91
2022/02/23 02:24:35;;;;;;;20.48;7.82;;;10.20;99.90;;;;;;5016534;28;20023;-90
2022/02/23 02:27:03;;;;;;;21.85;6.78;;;10.20;99.90;;;;;;5028812;28;20060;-91
2022/02/23 02:29:29;;;;;;;22.38;6.78;;;10.30;99.90;;;;;;5032053;28;20037;-91
2022/02/23 02:31:55;;;;;;;20.10;6.53;;;10.30;99.90;;;;;;5031884;28;20490;-90
2022/02/23 02:34:21;;;;;;;21.02;7.05;;;10.20;99.90;;;;;;5015467;28;20037;-91
2022/02/23 02:36:50;;;;;;;16.80;5.82;;;10.30;99.90;;;;;;5031280;28;20037;-91
2022/02/23 02:39:17;;;;;;;22.63;6.03;;;10.30;99.90;;;;;;5031981;28;20021;-91
2022/02/23 02:41:44;;;;;;;15.95;5.70;;;10.10;99.90;;;;;;5030482;28;20421;-91
2022/02/23 02:44:09;;;;;;;20.05;6.65;;;10.20;99.90;;;;;;5031575;28;20038;-90
2022/02/23 02:46:35;;;;;;;20.13;6.05;;;10.50;99.90;;;;;;5031576;28;20125;-90
2022/02/23 02:49:01;;;;;;;22.42;5.82;;;10.00;99.90;;;;;;5031793;28;20045;-91
2022/02/23 02:51:27;;;;;;;20.05;5.63;;;10.00;99.90;;;;;;5030101;28;20486;-91
2022/02/23 02:53:52;;;;;;;19.40;6.15;;;10.00;99.90;;;;;;5031607;28;20541;-91
2022/02/23 02:56:18;;;;;;;17.60;6.03;;;10.20;99.90;;;;;;5032352;28;20037;-90
2022/02/23 02:58:51;;;;;;;16.50;5.90;;;10.00;99.90;;;;;;5031774;28;20460;-90
2022/02/23 03:01:25;;;;;;;16.98;6.13;;;10.00;99.90;;;;;;5031555;28;20029;-90
2022/02/23 03:03:50;;;;;;;23.30;6.90;;;10.10;99.90;;;;;;5031492;28;20029;-90
2022/02/23 03:06:17;;;;;;;15.68;6.15;;;10.30;99.90;;;;;;5031895;28;20029;-90
2022/02/23 03:08:45;;;;;;;17.95;6.50;;;10.30;99.90;;;;;;5030031;28;20492;-91
2022/02/23 03:11:11;;;;;;;17.95;6.10;;;10.40;99.90;;;;;;5014954;28;20043;-91
2022/02/23 03:13:38;;;;;;;19.85;7.47;;;10.40;99.90;;;;;;5021039;28;20505;-90
2022/02/23 03:16:05;;;;;;;23.73;7.15;;;10.40;99.90;;;;;;5031431;28;20029;-91
2022/02/23 03:18:30;;;;;;;21.92;7.18;;;10.30;99.90;;;;;;5015780;28;20129;-91
2022/02/23 03:20:56;;;;;;;18.88;8.63;;;10.30;99.90;;;;;;5031510;28;20558;-91
2022/02/23 03:23:22;;;;;;;25.40;8.27;;;10.40;99.90;;;;;;5030883;28;20087;-91
2022/02/23 03:25:47;;;;;;;24.38;7.72;;;10.30;99.90;;;;;;5031743;28;20071;-91
2022/02/23 03:28:13;;;;;;;19.02;7.25;;;10.30;99.90;;;;;;5031094;28;20041;-91
2022/02/23 03:30:39;;;;;;;21.77;7.43;;;10.30;99.90;;;;;;5031234;28;20021;-90
2022/02/23 03:33:09;;;;;;;25.55;7.82;;;10.20;99.90;;;;;;5034221;28;20045;-91
2022/02/23 03:35:39;;;;;;;19.38;7.70;;;10.10;99.90;;;;;;5034201;28;20521;-90
2022/02/23 03:38:07;;;;;;;24.90;8.52;;;10.10;99.90;;;;;;5034680;28;20506;-90
2022/02/23 03:40:33;;;;;;;22.38;8.75;;;10.00;99.90;;;;;;5034617;28;20171;-90
2022/02/23 03:42:59;;;;;;;27.75;8.38;;;9.90;99.90;;;;;;5035189;28;20537;-90
2022/02/23 03:45:26;;;;;;;26.83;8.13;;;9.80;1.00;;;;;;5034557;28;20049;-91
2022/02/23 03:47:52;;;;;;;22.95;8.98;;;9.80;99.90;;;;;;5017697;28;20029;-91
2022/02/23 03:50:18;;;;;;;24.23;8.82;;;9.80;99.90;;;;;;5034509;28;20167;-90
2022/02/23 03:52:44;;;;;;;23.45;8.45;;;9.90;99.90;;;;;;5034441;28;20021;-91
2022/02/23 03:55:10;;;;;;;26.30;9.00;;;9.90;99.90;;;;;;5018058;28;20037;-91
2022/02/23 03:57:36;;;;;;;23.20;8.75;;;9.80;99.90;;;;;;5018176;28;20026;-91
2022/02/23 04:00:05;;;;;;;21.17;8.23;;;9.80;99.90;;;;;;5034887;28;20105;-91
2022/02/23 04:02:30;;;;;;;19.65;7.97;;;9.90;99.90;;;;;;5034481;28;20087;-90
2022/02/23 04:04:56;;;;;;;22.92;8.25;;;10.10;99.90;;;;;;5017835;28;20029;-91
2022/02/23 04:07:22;;;;;;;23.95;8.57;;;9.80;99.90;;;;;;5034015;28;20026;-90
2022/02/23 04:09:48;;;;;;;19.65;7.85;;;9.80;99.90;;;;;;5034167;28;20402;-91
2022/02/23 04:12:15;;;;;;;25.55;8.23;;;9.90;99.90;;;;;;5034595;28;20562;-91
2022/02/23 04:14:41;;;;;;;18.52;8.60;;;10.00;99.90;;;;;;5034376;28;20060;-91
2022/02/23 04:17:07;;;;;;;18.05;8.15;;;10.00;99.90;;;;;;5017704;28;20124;-91
2022/02/23 04:19:33;;;;;;;21.70;8.43;;;9.90;99.90;;;;;;5019138;28;20127;-91
2022/02/23 04:21:58;;;;;;;19.77;7.70;;;10.00;99.90;;;;;;5034179;28;20026;-90
2022/02/23 04:24:24;;;;;;;21.23;7.63;;;10.10;99.90;;;;;;5033859;28;20075;-91
2022/02/23 04:26:50;;;;;;;25.48;8.00;;;10.00;99.90;;;;;;5034438;28;20053;-91
2022/02/23 04:29:15;;;;;;;22.23;8.13;;;9.90;99.90;;;;;;5034090;28;20040;-91
2022/02/23 04:31:43;;;;;;;20.45;7.38;;;9.90;99.90;;;;;;5033677;28;20033;-91
2022/02/23 04:34:09;;;;;;;16.50;7.03;;;9.80;99.90;;;;;;5016913;28;20037;-91
2022/02/23 04:36:35;;;;;;;18.20;7.57;;;9.80;1.00;;;;;;5034182;28;20041;-91
2022/02/23 04:39:01;;;;;;;19.13;6.80;;;9.60;1.00;;;;;;5034433;28;20470;-91
2022/02/23 04:41:27;;;;;;;23.60;7.15;;;9.70;1.00;;;;;;5033490;28;20025;-91
2022/02/23 04:43:52;;;;;;;18.25;6.35;;;9.70;1.00;;;;;;5032704;28;20521;-91
2022/02/23 04:46:18;;;;;;;17.67;6.72;;;9.60;99.90;;;;;;5033680;28;20500;-93
2022/02/23 04:48:45;;;;;;;19.25;7.70;;;9.60;99.90;;;;;;5033568;28;20037;-91
2022/02/23 04:51:11;;;;;;;18.92;6.63;;;9.70;1.00;;;;;;5015942;28;20031;-91
2022/02/23 04:53:37;;;;;;;22.58;7.25;;;9.70;1.00;;;;;;5033908;28;20033;-90
2022/02/23 04:56:04;;;;;;;20.15;7.07;;;9.80;99.90;;;;;;5017136;28;20042;-91
2022/02/23 04:58:30;;;;;;;17.88;7.10;;;10.00;1.00;;;;;;5016686;28;20387;-91
2022/02/23 05:00:56;;;;;;;23.88;7.57;;;10.20;99.90;;;;;;5016343;28;20079;-91
2022/02/23 05:03:21;;;;;;;21.23;6.63;;;9.90;99.90;;;;;;5032325;28;20029;-91
2022/02/23 05:05:49;;;;;;;18.75;6.57;;;9.80;1.00;;;;;;5033751;28;20022;-91
2022/02/23 05:08:15;;;;;;;18.20;6.35;;;9.80;99.90;;;;;;5033186;28;20067;-91
2022/02/23 05:10:42;;;;;;;18.63;6.40;;;9.80;99.90;;;;;;5019344;28;20025;-91
2022/02/23 05:13:08;;;;;;;23.23;7.15;;;9.70;1.00;;;;;;5033165;28;20026;-90
2022/02/23 05:15:34;;;;;;;19.23;6.68;;;10.00;99.90;;;;;;5015100;28;20038;-90
2022/02/23 05:17:59;;;;;;;22.17;7.00;;;10.00;99.90;;;;;;5033889;28;20029;-90
2022/02/23 05:20:27;;;;;;;23.55;7.10;;;10.00;99.90;;;;;;5023147;28;20033;-91
2022/02/23 05:22:52;;;;;;;16.77;6.38;;;9.90;99.90;;;;;;5015771;28;20108;-91
2022/02/23 05:25:18;;;;;;;20.17;6.55;;;9.90;99.90;;;;;;5032892;28;20120;-91
2022/02/23 05:27:44;;;;;;;19.33;6.60;;;9.90;99.90;;;;;;5032959;28;20087;-90
2022/02/23 05:30:10;;;;;;;21.88;6.80;;;9.90;99.90;;;;;;5032509;28;20029;-91
2022/02/23 05:32:37;;;;;;;20.95;6.68;;;9.70;1.00;;;;;;5015818;28;20433;-90
2022/02/23 05:35:04;;;;;;;17.20;6.63;;;9.70;1.00;;;;;;5032127;28;20044;-90
2022/02/23 05:37:31;;;;;;;21.23;6.55;;;9.70;1.00;;;;;;5032462;28;20129;-90
2022/02/23 05:39:57;;;;;;;18.25;6.57;;;9.70;1.00;;;;;;5032817;28;20030;-91
2022/02/23 05:42:22;;;;;;;17.60;6.38;;;9.60;1.00;;;;;;5032724;28;20079;-91
2022/02/23 05:44:48;;;;;;;19.45;7.03;;;9.70;1.00;;;;;;5032486;28;20021;-91
2022/02/23 05:47:13;;;;;;;20.00;7.00;;;9.60;99.90;;;;;;5032467;28;20417;-91
2022/02/23 05:49:39;;;;;;;16.67;6.25;;;9.80;99.90;;;;;;5032367;28;20030;-90
2022/02/23 05:52:05;;;;;;;21.70;6.38;;;9.60;1.00;;;;;;5015922;28;20035;-91
2022/02/23 05:54:34;;;;;;;25.92;7.50;;;9.70;99.90;;;;;;5016451;28;20037;-90
2022/02/23 05:57:00;;;;;;;18.83;5.97;;;10.10;1.00;;;;;;5028568;28;20021;-90
2022/02/23 05:59:25;;;;;;;19.38;6.75;;;9.80;99.90;;;;;;5031845;28;20038;-91
2022/02/23 06:01:52;;;;;;;24.23;6.45;;;9.80;1.00;;;;;;5032239;28;20091;-91
2022/02/23 06:04:18;;;;;;;19.50;6.45;;;9.80;1.00;;;;;;5032689;28;20112;-91
2022/02/23 06:06:44;;;;;;;18.88;6.55;;;9.80;99.90;;;;;;5031820;28;20112;-90
2022/02/23 06:09:10;;;;;;;23.02;6.50;;;10.00;1.00;;;;;;5014716;28;20075;-90
2022/02/23 06:11:38;;;;;;;20.90;6.45;;;10.30;99.90;;;;;;5032186;28;20034;-90
2022/02/23 06:14:05;;;;;;;22.67;6.65;;;10.10;1.00;;;;;;5031553;28;20041;-91
2022/02/23 06:16:32;;;;;;;20.40;6.57;;;9.80;1.00;;;;;;5015524;28;20026;-91
2022/02/23 06:18:58;;;;;;;19.30;6.55;;;9.70;1.00;;;;;;5031868;28;20022;-90
2022/02/23 06:21:25;;;;;;;19.75;6.40;;;9.70;1.00;;;;;;5032216;28;20083;-91
2022/02/23 06:23:51;;;;;;;18.23;6.82;;;9.60;1.00;;;;;;5014519;28;20485;-91
2022/02/23 06:26:17;;;;;;;21.25;7.65;;;10.00;1.00;;;;;;5031827;28;20033;-91
2022/02/23 06:28:43;;;;;;;19.55;7.30;;;9.80;1.00;;;;;;5031459;28;20056;-91
2022/02/23 06:31:10;;;;;;;20.83;7.72;;;9.90;1.00;;;;;;5018666;28;20038;-91
2022/02/23 06:33:37;;;;;;;18.00;6.82;;;9.90;1.00;;;;;;5014868;28;20079;-91
2022/02/23 06:36:03;;;;;;;20.85;6.80;;;10.00;1.00;;;;;;5032310;28;20036;-90
2022/02/23 06:38:29;;;;;;;19.83;7.28;;;10.00;1.00;;;;;;5031941;28;20037;-91
2022/02/23 06:40:57;;;;;;;20.48;6.85;;;10.00;99.90;;;;;;5015310;28;20029;-91
2022/02/23 06:43:22;;;;;;;20.83;7.63;;;10.00;1.00;;;;;;5031099;28;20321;-90
2022/02/23 06:45:50;;;;;;;17.55;6.93;;;10.10;1.00;;;;;;5031895;28;20104;-90
2022/02/23 06:48:21;;;;;;;19.45;6.80;;;10.00;1.00;;;;;;5032046;28;20026;-90
2022/02/23 06:50:48;;;;;;;18.40;6.97;;;10.30;1.00;;;;;;5030677;28;20034;-91
2022/02/23 06:53:15;;;;;;;27.58;9.13;;;10.20;1.00;;;;;;5031757;28;20032;-91
2022/02/23 06:55:42;;;;;;;26.77;11.10;;;10.30;1.00;;;;;;5031456;28;20075;-91
2022/02/23 06:58:08;;;;;;;23.08;7.40;;;10.40;1.00;;;;;;5018890;28;20029;-91
2022/02/23 07:00:34;;;;;;;18.52;6.80;;;10.20;1.00;;;;;;5032008;28;20034;-91
2022/02/23 07:03:00;;;;;;;21.33;6.20;;;10.30;1.00;;;;;;5031935;28;20037;-91
2022/02/23 07:05:26;;;;;;;16.60;5.45;;;10.60;1.00;;;;;;5031526;28;20029;-90
2022/02/23 07:07:52;;;;;;;18.88;5.78;;;10.50;1.00;;;;;;5034198;28;20042;-90
2022/02/23 07:10:26;;;;;;;19.17;5.80;;;10.50;1.00;;;;;;5035280;28;20224;-91
2022/02/23 07:12:52;;;;;;;20.38;5.47;;;10.60;1.00;;;;;;5034802;28;20029;-90
2022/02/23 07:15:20;;;;;;;23.35;6.00;;;10.60;1.00;;;;;;5035321;28;20037;-91
2022/02/23 07:17:46;;;;;;;20.65;6.53;;;10.60;1.00;;;;;;5017994;28;20055;-91
2022/02/23 07:20:12;;;;;;;14.38;5.32;;;10.70;1.00;;;;;;5020155;28;20565;-91
2022/02/23 07:22:38;;;;;;;16.30;5.50;;;10.70;1.00;;;;;;5034760;28;20037;-90
2022/02/23 07:25:06;;;;;;;19.52;5.60;;;10.60;1.00;;;;;;5034910;28;20025;-91
2022/02/23 07:27:32;;;;;;;17.95;6.68;;;10.70;1.00;;;;;;5002186;28;20025;-90
2022/02/23 07:29:58;;;;;;;19.83;6.20;;;10.60;1.00;;;;;;5035368;28;20034;-90
2022/02/23 07:32:28;;;;;;;17.90;6.50;;;10.70;1.00;;;;;;5034834;28;20456;-91
2022/02/23 07:34:54;;;;;;;15.48;5.10;;;10.80;1.00;;;;;;5034748;28;20038;-91
2022/02/23 07:37:20;;;;;;;18.75;4.85;;;10.80;1.00;;;;;;5034770;28;20445;-91
2022/02/23 07:39:49;;;;;;;17.58;4.95;;;10.80;1.00;;;;;;5034961;28;20029;-91
2022/02/23 07:42:15;;;;;;;17.70;4.95;;;10.80;1.00;;;;;;5034495;28;20071;-91
2022/02/23 07:44:41;;;;;;;14.05;4.13;;;10.90;1.00;;;;;;5035575;28;20053;-90
2022/02/23 07:47:06;;;;;;;15.30;4.20;;;10.80;1.00;;;;;;5034629;28;20101;-90
2022/02/23 07:49:32;;;;;;;18.85;4.78;;;10.70;1.00;;;;;;5034364;28;20112;-91
2022/02/23 07:51:59;;;;;;;19.63;5.93;;;10.70;1.00;;;;;;5035077;28;20025;-91
2022/02/23 07:54:25;;;;;;;21.83;5.30;;;10.80;1.00;;;;;;5034417;28;20033;-91
2022/02/23 07:56:51;;;;;;;18.92;6.18;;;11.20;1.00;;;;;;5034649;28;20021;-90
2022/02/23 07:59:17;;;;;;;18.08;4.78;;;10.90;1.00;;;;;;5034619;28;20034;-91
2022/02/23 08:01:43;;;;;;;20.33;5.60;;;10.80;1.00;;;;;;5034436;28;20022;-90
2022/02/23 08:04:09;;;;;;;15.52;5.25;;;10.80;1.00;;;;;;5033995;28;20173;-90
2022/02/23 08:06:35;;;;;;;13.30;5.40;;;11.10;1.00;;;;;;5034353;28;20036;-91
2022/02/23 08:09:02;;;;;;;21.15;6.75;;;11.20;1.00;;;;;;5017260;28;20029;-91
2022/02/23 08:11:31;;;;;;;22.45;5.65;;;11.20;1.00;;;;;;5034090;28;20025;-91
2022/02/23 08:14:02;;;;;;;19.15;7.30;;;11.20;1.00;;;;;;5034265;28;20029;-91
2022/02/23 08:22:16;;;;;;;19.40;7.25;;;11.00;1.00;;;;;;4955402;28;20035;-91
2022/02/23 08:24:44;;;;;;;15.93;6.82;;;11.10;1.00;;;;;;4958189;28;20046;-91
2022/02/23 08:27:15;;;;;;;19.75;6.07;;;11.30;1.00;;;;;;4957320;28;20036;-91
2022/02/23 08:29:41;;;;;;;20.83;5.63;;;11.20;1.00;;;;;;4937970;29;20062;-91
2022/02/23 08:32:10;;;;;;;17.25;5.30;;;11.30;1.00;;;;;;4937692;29;20047;-91
2022/02/23 08:34:37;;;;;;;14.88;4.93;;;11.60;1.00;;;;;;4956136;28;20311;-90
2022/02/23 08:37:04;;;;;;;21.42;5.45;;;11.20;1.00;;;;;;4955958;28;20580;-91
2022/02/23 08:39:30;;;;;;;17.88;5.15;;;11.10;1.00;;;;;;4955335;28;20027;-91
2022/02/23 08:41:56;;;;;;;18.73;5.47;;;11.20;1.00;;;;;;4942868;28;20616;-91
2022/02/23 08:44:22;;;;;;;16.98;4.78;;;11.70;1.00;;;;;;4953846;28;20046;-91
2022/02/23 08:46:49;;;;;;;17.33;5.53;;;11.40;1.00;;;;;;4938751;29;20053;-91
2022/02/23 08:49:15;;;;;;;15.88;5.35;;;11.80;1.00;;;;;;4955662;28;20035;-91
2022/02/23 08:51:44;;;;;;;17.45;5.38;;;11.50;1.00;;;;;;4957093;28;20027;-90
2022/02/23 08:54:11;;;;;;;20.73;7.60;;;11.50;1.00;;;;;;4953349;28;20440;-91
2022/02/23 08:56:37;;;;;;;18.88;5.72;;;11.60;1.00;;;;;;5003266;28;20083;-91
2022/02/23 08:59:03;;;;;;;21.50;6.20;;;11.30;1.00;;;;;;5033253;28;20075;-91
2022/02/23 09:01:32;;;;;;;17.65;4.65;;;11.30;1.00;;;;;;5033360;28;20096;-91
2022/02/23 09:04:02;;;;;;;18.95;5.00;;;11.40;1.00;;;;;;5033142;28;20029;-91
2022/02/23 09:06:33;;;;;;;14.57;4.50;;;11.70;1.00;;;;;;5033614;28;20022;-91
2022/02/23 09:09:07;;;;;;;14.20;4.75;;;11.60;1.00;;;;;;5033513;28;20087;-91
2022/02/23 09:11:32;;;;;;;20.17;4.50;;;11.60;1.00;;;;;;5032961;28;20292;-91
2022/02/23 09:13:58;;;;;;;21.40;5.53;;;11.80;1.00;;;;;;5032704;28;20075;-91
2022/02/23 09:16:24;;;;;;;17.25;5.13;;;11.90;1.00;;;;;;5033077;28;20486;-91
2022/02/23 09:18:50;;;;;;;15.43;5.32;;;12.00;1.00;;;;;;5033167;28;20033;-91
2022/02/23 09:21:16;;;;;;;19.88;5.38;;;12.10;99.90;;;;;;5033378;28;20033;-91
2022/02/23 09:23:42;;;;;;;16.27;4.63;;;12.20;1.00;;;;;;5032359;28;20118;-91
2022/02/23 09:26:08;;;;;;;15.43;4.30;;;12.10;1.00;;;;;;5032687;28;20064;-91
2022/02/23 09:28:37;;;;;;;14.57;5.85;;;12.20;1.00;;;;;;5032665;28;20126;-91
2022/02/23 09:31:07;;;;;;;20.92;8.60;;;12.10;99.90;;;;;;5032291;28;20017;-91
2022/02/23 09:33:33;;;;;;;14.98;6.13;;;12.20;1.00;;;;;;5032656;28;20036;-91
2022/02/23 09:36:02;;;;;;;20.35;5.30;;;12.40;1.00;;;;;;5028277;28;20042;-92
2022/02/23 09:38:30;;;;;;;18.02;5.72;;;12.70;1.00;;;;;;5032712;28;20047;-91
2022/02/23 09:40:58;;;;;;;19.17;5.72;;;12.70;1.00;;;;;;5032411;28;20033;-91
2022/02/23 09:43:24;;;;;;;14.68;5.50;;;12.80;1.00;;;;;;5032457;28;20026;-91
2022/02/23 09:45:53;;;;;;;16.70;5.15;;;13.10;99.90;;;;;;5032865;28;20041;-91
2022/02/23 09:48:20;;;;;;;15.90;5.57;;;13.10;1.00;;;;;;5031906;28;20037;-91
2022/02/23 09:50:47;;;;;;;16.60;5.82;;;12.90;1.00;;;;;;5033020;28;20387;-91
2022/02/23 09:53:14;;;;;;;16.98;6.20;;;12.80;1.00;;;;;;5015710;28;20025;-91
2022/02/23 09:55:40;;;;;;;15.48;5.20;;;13.00;1.00;;;;;;5032260;28;20037;-91
2022/02/23 09:58:06;;;;;;;21.35;6.13;;;13.30;99.90;;;;;;5017640;28;20028;-91
2022/02/23 10:00:33;;;;;;;14.02;5.13;;;13.70;99.90;;;;;;5015324;28;20026;-91
2022/02/23 10:02:59;;;;;;;14.07;5.25;;;13.50;1.00;;;;;;5032699;28;20036;-91
2022/02/23 10:05:25;;;;;;;16.13;5.13;;;13.70;1.00;;;;;;5016744;28;20033;-90
2022/02/23 10:08:03;;;;;;;18.95;5.60;;;13.50;99.90;;;;;;5032297;28;20116;-91
2022/02/23 10:10:34;;;;;;;13.93;5.85;;;13.40;1.00;;;;;;5032262;28;20022;-91
2022/02/23 10:13:03;;;;;;;17.33;5.65;;;13.40;1.00;;;;;;5016717;28;20461;-90
2022/02/23 10:15:30;;;;;;;16.30;4.97;;;13.30;99.90;;;;;;5032094;28;20029;-91
2022/02/23 10:17:56;;;;;;;12.80;4.82;;;13.10;1.00;;;;;;5032266;28;20406;-91
2022/02/23 10:20:28;;;;;;;19.05;5.78;;;12.90;99.90;;;;;;5031550;28;20037;-92
2022/02/23 10:22:58;;;;;;;15.07;5.05;;;12.90;1.00;;;;;;5031943;28;20033;-91
2022/02/23 10:25:25;;;;;;;15.50;5.30;;;12.80;1.00;;;;;;5032390;28;20502;-91
2022/02/23 10:28:05;;;;;;;14.40;5.05;;;12.90;1.00;;;;;;5016261;28;20030;-91
2022/02/23 10:30:31;;;;;;;13.38;4.60;;;13.00;1.00;;;;;;5014538;28;20517;-91
2022/02/23 10:33:34;;;;;;;15.80;5.28;;;13.10;99.90;;;;;;5015221;28;20029;-91
2022/02/23 10:36:06;;;;;;;15.82;5.00;;;13.10;1.00;;;;;;5018481;28;20517;-91
2022/02/23 10:38:39;;;;;;;11.18;4.65;;;13.10;1.00;;;;;;5031586;28;20112;-91
2022/02/23 10:41:07;;;;;;;13.07;4.43;;;13.00;1.00;;;;;;5032118;28;20427;-91
2022/02/23 10:43:35;;;;;;;13.50;5.00;;;13.20;1.00;;;;;;5035084;28;20079;-91
2022/02/23 10:46:10;;;;;;;13.60;4.38;;;13.30;1.00;;;;;;5020555;28;20084;-90
2022/02/23 10:48:41;;;;;;;12.32;4.45;;;13.70;1.00;;;;;;5003510;28;20024;-92
2022/02/23 10:51:09;;;;;;;9.00;3.55;;;16.30;1.00;;;;;;5018018;28;20053;-91
2022/02/23 10:53:35;;;;;;;9.80;4.13;;;17.50;1.00;;;;;;5035936;28;20483;-91
2022/02/23 10:56:18;;;;;;;12.65;4.45;;;16.90;99.90;;;;;;5035454;28;20405;-91
2022/02/23 10:58:44;;;;;;;11.82;3.85;;;15.90;99.90;;;;;;5020602;28;20508;-92
2022/02/23 11:01:09;;;;;;;9.93;3.97;;;18.90;99.90;;;;;;5035560;28;20033;-92
2022/02/23 11:03:35;;;;;;;9.43;3.70;;;18.40;99.90;;;;;;5035744;28;20018;-91
2022/02/23 11:06:01;;;;;;;10.77;4.07;;;17.60;1.00;;;;;;5036090;28;20053;-91
2022/02/23 11:08:27;;;;;;;12.32;3.88;;;17.20;99.90;;;;;;5035435;28;20042;-92
2022/02/23 11:10:55;;;;;;;10.02;3.72;;;16.40;99.90;;;;;;5019257;28;20025;-92
2022/02/23 11:13:21;;;;;;;5.57;2.75;;;16.70;99.90;;;;;;5035210;28;20547;-92
2022/02/23 11:15:49;;;;;;;9.13;3.30;;;18.20;99.90;;;;;;5035355;28;20510;-92
2022/02/23 11:18:17;;;;;;;8.93;3.10;;;20.10;99.90;;;;;;5035063;28;20033;-92
2022/02/23 11:20:45;;;;;;;7.20;2.95;;;21.30;99.90;;;;;;5018080;28;20022;-92
2022/02/23 11:23:17;;;;;;;6.10;2.90;;;22.30;99.90;;;;;;5019157;28;20120;-93
2022/02/23 11:25:46;;;;;;;6.28;2.53;;;24.70;99.90;;;;;;5035178;28;20025;-93
2022/02/23 11:28:44;;;;;;;5.50;2.40;;;25.90;99.90;;;;;;5018733;28;20486;-92
2022/02/23 11:31:13;;;;;;;7.03;2.70;;;27.10;99.90;;;;;;5034929;28;20042;-93
2022/02/23 11:33:54;;;;;;;5.68;2.67;;;27.40;99.90;;;;;;5034848;28;20037;-93
2022/02/23 11:36:32;;;;;;;5.10;2.60;;;28.20;99.90;;;;;;5034628;28;20201;-93
2022/02/23 11:39:04;;;;;;;7.43;3.10;;;29.10;99.90;;;;;;5035772;28;20083;-93
2022/02/23 11:41:32;;;;;;;8.15;3.17;;;28.90;99.90;;;;;;5034573;28;20037;-93
2022/02/23 11:44:14;;;;;;;7.43;2.80;;;27.90;99.90;;;;;;5020138;28;20112;-92
2022/02/23 11:47:07;;;;;;;6.90;3.00;;;27.70;99.90;;;;;;5034472;28;20039;-93
2022/02/23 11:49:33;;;;;;;5.50;2.78;;;27.60;99.90;;;;;;5034560;28;20075;-93
2022/02/23 11:52:06;;;;;;;6.38;2.78;;;28.30;99.90;;;;;;5034956;28;20029;-93
2022/02/23 11:54:59;;;;;;;4.75;2.33;;;29.60;99.90;;;;;;5017928;28;20573;-93
2022/02/23 11:57:49;;;;;;;4.78;2.13;;;28.70;99.90;;;;;;5033938;28;20107;-93
2022/02/23 12:00:33;;;;;;;3.95;2.08;;;29.10;99.90;;;;;;5016332;28;20037;-93
2022/02/23 12:03:10;;;;;;;3.70;2.40;;;30.30;99.90;;;;;;5017134;28;20397;-93
2022/02/23 12:05:46;;;;;;;4.20;2.30;;;28.40;99.90;;;;;;5034619;28;20040;-92
2022/02/23 12:08:43;;;;;;;6.03;2.42;;;26.20;99.90;;;;;;5034244;28;20037;-93
2022/02/23 12:11:10;;;;;;;4.70;2.35;;;24.30;99.90;;;;;;5034249;28;20045;-92
2022/02/23 12:13:37;;;;;;;2.85;1.98;;;27.30;99.90;;;;;;5034073;28;20569;-92
2022/02/23 12:16:21;;;;;;;4.75;2.50;;;25.90;99.90;;;;;;5034081;28;20413;-92
2022/02/23 12:18:49;;;;;;;4.43;1.95;;;23.30;99.90;;;;;;5020658;28;20014;-93
2022/02/23 12:21:15;;;;;;;4.05;2.03;;;23.50;99.90;;;;;;5034003;28;20092;-93
2022/02/23 12:23:45;;;;;;;5.07;2.33;;;22.90;99.90;;;;;;5017409;28;20029;-92
2022/02/23 12:26:14;;;;;;;4.93;2.00;;;24.40;99.90;;;;;;5033682;28;20052;-92
2022/02/23 12:28:40;;;;;;;3.80;1.90;;;26.60;99.90;;;;;;5017284;28;20030;-93
2022/02/23 12:31:08;;;;;;;3.22;1.80;;;27.10;99.90;;;;;;5033590;28;20103;-92
2022/02/23 12:33:36;;;;;;;2.63;1.60;;;26.10;99.90;;;;;;5018173;28;20104;-92
2022/02/23 12:36:05;;;;;;;4.38;1.90;;;24.20;99.90;;;;;;5030335;28;20513;-92
2022/02/23 12:38:46;;;;;;;3.42;1.88;;;23.10;99.90;;;;;;5018867;28;20025;-93
2022/02/23 12:41:22;;;;;;;5.28;1.70;;;21.50;99.90;;;;;;5016919;28;20056;-92
2022/02/23 12:43:55;;;;;;;3.55;1.65;;;20.90;99.90;;;;;;5033707;28;20021;-92
2022/02/23 12:46:21;;;;;;;2.22;1.60;;;20.40;99.90;;;;;;5033419;28;20392;-92
2022/02/23 12:48:47;;;;;;;2.75;1.50;;;20.10;99.90;;;;;;5033297;28;20030;-92
2022/02/23 12:51:12;;;;;;;3.13;1.48;;;19.60;99.90;;;;;;5032785;28;20025;-92